sensor_id;sensor_type;location;lat;lon;timestamp;temperature;humidity
55203;DHT22;41077;52.956;6.796;2022-08-06T00:02:28;12.90;99.90
55203;DHT22;41077;52.956;6.796;2022-08-06T00:04:56;13.00;99.90
55203;DHT22;41077;52.956;6.796;2022-08-06T00:07:22;13.00;99.90
55203;DHT22;41077;52.956;6.796;2022-08-06T00:09:48;13.00;99.90
55203;DHT22;41077;52.956;6.796;2022-08-06T00:12:13;13.00;99.90
55203;DHT22;41077;52.956;6.796;2022-08-06T00:14:39;13.00;99.90
55203;DHT22;41077;52.956;6.796;2022-08-06T00:17:05;13.00;99.90
55203;DHT22;41077;52.956;6.796;2022-08-06T00:19:30;13.00;99.90
55203;DHT22;41077;52.956;6.796;2022-08-06T00:21:56;13.10;99.90
55203;DHT22;41077;52.956;6.796;2022-08-06T00:24:22;13.00;99.90
55203;DHT22;41077;52.956;6.796;2022-08-06T00:26:48;13.10;99.90
55203;DHT22;41077;52.956;6.796;2022-08-06T00:29:13;13.10;99.90
55203;DHT22;41077;52.956;6.796;2022-08-06T00:31:39;13.00;99.90
55203;DHT22;41077;52.956;6.796;2022-08-06T00:34:05;12.90;99.90
55203;DHT22;41077;52.956;6.796;2022-08-06T00:36:32;12.90;99.90
55203;DHT22;41077;52.956;6.796;2022-08-06T00:39:00;12.90;99.90
55203;DHT22;41077;52.956;6.796;2022-08-06T00:41:29;12.80;99.90
55203;DHT22;41077;52.956;6.796;2022-08-06T00:43:56;12.80;99.90
55203;DHT22;41077;52.956;6.796;2022-08-06T00:46:22;12.70;99.90
55203;DHT22;41077;52.956;6.796;2022-08-06T00:48:48;12.70;99.90
55203;DHT22;41077;52.956;6.796;2022-08-06T00:51:14;12.60;99.90
55203;DHT22;41077;52.956;6.796;2022-08-06T00:53:40;12.60;99.90
55203;DHT22;41077;52.956;6.796;2022-08-06T00:56:06;12.50;99.90
55203;DHT22;41077;52.956;6.796;2022-08-06T00:58:32;12.50;99.90
55203;DHT22;41077;52.956;6.796;2022-08-06T01:00:58;12.50;99.90
55203;DHT22;41077;52.956;6.796;2022-08-06T01:03:23;12.40;99.90
55203;DHT22;41077;52.956;6.796;2022-08-06T01:05:49;12.40;99.90
55203;DHT22;41077;52.956;6.796;2022-08-06T01:08:15;12.30;99.90
55203;DHT22;41077;52.956;6.796;2022-08-06T01:10:41;12.30;99.90
55203;DHT22;41077;52.956;6.796;2022-08-06T01:13:07;12.20;99.90
55203;DHT22;41077;52.956;6.796;2022-08-06T01:15:34;12.20;99.90
55203;DHT22;41077;52.956;6.796;2022-08-06T01:18:11;12.10;99.90
55203;DHT22;41077;52.956;6.796;2022-08-06T01:29:37;11.80;99.90
55203;DHT22;41077;52.956;6.796;2022-08-06T01:32:14;11.70;99.90
55203;DHT22;41077;52.956;6.796;2022-08-06T01:34:55;11.60;99.90
55203;DHT22;41077;52.956;6.796;2022-08-06T01:37:32;11.60;99.90
55203;DHT22;41077;52.956;6.796;2022-08-06T01:40:10;11.60;99.90
55203;DHT22;41077;52.956;6.796;2022-08-06T01:42:38;11.50;99.90
55203;DHT22;41077;52.956;6.796;2022-08-06T01:45:07;11.50;99.90
55203;DHT22;41077;52.956;6.796;2022-08-06T01:47:35;11.50;99.90
55203;DHT22;41077;52.956;6.796;2022-08-06T01:50:04;11.50;99.90
55203;DHT22;41077;52.956;6.796;2022-08-06T01:52:37;11.50;99.90
55203;DHT22;41077;52.956;6.796;2022-08-06T01:55:16;11.50;99.90
55203;DHT22;41077;52.956;6.796;2022-08-06T01:57:48;11.40;99.90
55203;DHT22;41077;52.956;6.796;2022-08-06T02:00:16;11.40;99.90
55203;DHT22;41077;52.956;6.796;2022-08-06T02:02:42;11.30;99.90
55203;DHT22;41077;52.956;6.796;2022-08-06T02:05:09;11.30;99.90
55203;DHT22;41077;52.956;6.796;2022-08-06T02:07:36;11.30;99.90
55203;DHT22;41077;52.956;6.796;2022-08-06T02:10:06;11.30;99.90
55203;DHT22;41077;52.956;6.796;2022-08-06T02:12:33;11.20;99.90
55203;DHT22;41077;52.956;6.796;2022-08-06T02:17:39;11.20;99.90
55203;DHT22;41077;52.956;6.796;2022-08-06T02:20:08;11.20;99.90
55203;DHT22;41077;52.956;6.796;2022-08-06T02:22:37;11.10;99.90
55203;DHT22;41077;52.956;6.796;2022-08-06T02:25:06;11.10;99.90
55203;DHT22;41077;52.956;6.796;2022-08-06T02:27:38;11.10;99.90
55203;DHT22;41077;52.956;6.796;2022-08-06T02:30:06;11.00;99.90
55203;DHT22;41077;52.956;6.796;2022-08-06T02:32:32;11.00;99.90
55203;DHT22;41077;52.956;6.796;2022-08-06T02:34:58;10.90;99.90
55203;DHT22;41077;52.956;6.796;2022-08-06T02:37:31;10.80;99.90
55203;DHT22;41077;52.956;6.796;2022-08-06T02:40:11;10.80;99.90
55203;DHT22;41077;52.956;6.796;2022-08-06T02:42:49;10.70;99.90
55203;DHT22;41077;52.956;6.796;2022-08-06T02:45:35;10.70;99.90
55203;DHT22;41077;52.956;6.796;2022-08-06T02:48:10;10.60;99.90
55203;DHT22;41077;52.956;6.796;2022-08-06T02:50:41;10.60;99.90
55203;DHT22;41077;52.956;6.796;2022-08-06T02:53:19;10.70;99.90
55203;DHT22;41077;52.956;6.796;2022-08-06T02:55:48;10.60;99.90
55203;DHT22;41077;52.956;6.796;2022-08-06T02:58:37;10.60;99.90
55203;DHT22;41077;52.956;6.796;2022-08-06T03:01:05;10.60;99.90
55203;DHT22;41077;52.956;6.796;2022-08-06T03:03:33;10.70;99.90
55203;DHT22;41077;52.956;6.796;2022-08-06T03:06:02;10.70;99.90
55203;DHT22;41077;52.956;6.796;2022-08-06T03:08:29;10.70;99.90
55203;DHT22;41077;52.956;6.796;2022-08-06T03:10:57;10.70;99.90
55203;DHT22;41077;52.956;6.796;2022-08-06T03:13:23;10.70;99.90
55203;DHT22;41077;52.956;6.796;2022-08-06T03:15:50;10.70;99.90
55203;DHT22;41077;52.956;6.796;2022-08-06T03:18:18;10.60;99.90
55203;DHT22;41077;52.956;6.796;2022-08-06T03:20:44;10.60;99.90
55203;DHT22;41077;52.956;6.796;2022-08-06T03:23:11;10.50;99.90
55203;DHT22;41077;52.956;6.796;2022-08-06T03:25:39;10.50;99.90
55203;DHT22;41077;52.956;6.796;2022-08-06T03:28:06;10.50;99.90
55203;DHT22;41077;52.956;6.796;2022-08-06T03:30:32;10.40;99.90
55203;DHT22;41077;52.956;6.796;2022-08-06T03:33:09;10.40;99.90
55203;DHT22;41077;52.956;6.796;2022-08-06T03:35:36;10.30;99.90
55203;DHT22;41077;52.956;6.796;2022-08-06T03:38:02;10.30;99.90
55203;DHT22;41077;52.956;6.796;2022-08-06T03:40:30;10.30;99.90
55203;DHT22;41077;52.956;6.796;2022-08-06T03:42:56;10.20;99.90
55203;DHT22;41077;52.956;6.796;2022-08-06T03:45:23;10.20;99.90
55203;DHT22;41077;52.956;6.796;2022-08-06T03:47:56;10.20;99.90
55203;DHT22;41077;52.956;6.796;2022-08-06T03:50:27;10.30;99.90
55203;DHT22;41077;52.956;6.796;2022-08-06T03:53:06;10.30;99.90
55203;DHT22;41077;52.956;6.796;2022-08-06T03:55:35;10.30;99.90
55203;DHT22;41077;52.956;6.796;2022-08-06T03:58:09;10.30;99.90
55203;DHT22;41077;52.956;6.796;2022-08-06T04:00:53;10.30;99.90
55203;DHT22;41077;52.956;6.796;2022-08-06T04:03:21;10.20;99.90
55203;DHT22;41077;52.956;6.796;2022-08-06T04:05:47;10.20;99.90
55203;DHT22;41077;52.956;6.796;2022-08-06T04:08:13;10.20;99.90
55203;DHT22;41077;52.956;6.796;2022-08-06T04:10:42;10.20;99.90
55203;DHT22;41077;52.956;6.796;2022-08-06T04:13:13;10.20;99.90
55203;DHT22;41077;52.956;6.796;2022-08-06T04:15:40;10.10;99.90
55203;DHT22;41077;52.956;6.796;2022-08-06T04:18:09;10.10;99.90
55203;DHT22;41077;52.956;6.796;2022-08-06T04:20:36;10.10;99.90
55203;DHT22;41077;52.956;6.796;2022-08-06T04:23:03;10.10;99.90
55203;DHT22;41077;52.956;6.796;2022-08-06T04:25:33;10.20;99.90
55203;DHT22;41077;52.956;6.796;2022-08-06T04:28:00;10.20;99.90
55203;DHT22;41077;52.956;6.796;2022-08-06T04:30:27;10.30;99.90
55203;DHT22;41077;52.956;6.796;2022-08-06T04:32:53;10.30;99.90
55203;DHT22;41077;52.956;6.796;2022-08-06T04:35:19;10.30;99.90
55203;DHT22;41077;52.956;6.796;2022-08-06T04:37:46;10.30;99.90
55203;DHT22;41077;52.956;6.796;2022-08-06T04:40:12;10.30;99.90
55203;DHT22;41077;52.956;6.796;2022-08-06T04:42:38;10.30;99.90
55203;DHT22;41077;52.956;6.796;2022-08-06T04:45:07;10.40;99.90
55203;DHT22;41077;52.956;6.796;2022-08-06T04:47:33;10.40;99.90
55203;DHT22;41077;52.956;6.796;2022-08-06T04:49:59;10.50;99.90
55203;DHT22;41077;52.956;6.796;2022-08-06T04:52:26;10.60;99.90
55203;DHT22;41077;52.956;6.796;2022-08-06T04:54:52;10.80;99.90
55203;DHT22;41077;52.956;6.796;2022-08-06T04:57:18;10.80;99.90
55203;DHT22;41077;52.956;6.796;2022-08-06T04:59:44;10.90;99.90
55203;DHT22;41077;52.956;6.796;2022-08-06T05:02:10;11.00;99.90
55203;DHT22;41077;52.956;6.796;2022-08-06T05:04:36;11.10;99.90
55203;DHT22;41077;52.956;6.796;2022-08-06T05:07:16;11.20;99.90
55203;DHT22;41077;52.956;6.796;2022-08-06T05:09:44;11.30;99.90
55203;DHT22;41077;52.956;6.796;2022-08-06T05:12:32;11.40;99.90
55203;DHT22;41077;52.956;6.796;2022-08-06T05:15:13;11.40;99.90
55203;DHT22;41077;52.956;6.796;2022-08-06T05:17:46;11.50;99.90
55203;DHT22;41077;52.956;6.796;2022-08-06T05:20:18;11.60;99.90
55203;DHT22;41077;52.956;6.796;2022-08-06T05:22:47;11.60;99.90
55203;DHT22;41077;52.956;6.796;2022-08-06T05:25:13;11.60;99.90
55203;DHT22;41077;52.956;6.796;2022-08-06T05:27:40;11.70;99.90
55203;DHT22;41077;52.956;6.796;2022-08-06T05:30:07;11.70;99.90
55203;DHT22;41077;52.956;6.796;2022-08-06T05:32:43;11.70;99.90
55203;DHT22;41077;52.956;6.796;2022-08-06T05:35:09;11.90;99.90
55203;DHT22;41077;52.956;6.796;2022-08-06T05:37:35;12.00;99.90
55203;DHT22;41077;52.956;6.796;2022-08-06T05:40:01;12.10;99.90
55203;DHT22;41077;52.956;6.796;2022-08-06T05:42:27;12.20;99.90
55203;DHT22;41077;52.956;6.796;2022-08-06T05:44:52;12.30;99.90
55203;DHT22;41077;52.956;6.796;2022-08-06T05:47:23;12.40;99.90
55203;DHT22;41077;52.956;6.796;2022-08-06T05:50:14;12.60;99.90
55203;DHT22;41077;52.956;6.796;2022-08-06T05:52:42;12.70;99.90
55203;DHT22;41077;52.956;6.796;2022-08-06T05:58:12;12.90;99.90
55203;DHT22;41077;52.956;6.796;2022-08-06T06:00:40;13.00;99.90
55203;DHT22;41077;52.956;6.796;2022-08-06T06:03:11;13.00;99.90
55203;DHT22;41077;52.956;6.796;2022-08-06T06:05:37;13.10;99.90
55203;DHT22;41077;52.956;6.796;2022-08-06T06:08:04;13.20;99.90
55203;DHT22;41077;52.956;6.796;2022-08-06T06:10:31;13.40;99.90
55203;DHT22;41077;52.956;6.796;2022-08-06T06:13:00;13.50;99.90
55203;DHT22;41077;52.956;6.796;2022-08-06T06:15:26;13.60;99.90
55203;DHT22;41077;52.956;6.796;2022-08-06T06:21:16;13.80;99.90
55203;DHT22;41077;52.956;6.796;2022-08-06T06:23:54;13.90;99.90
55203;DHT22;41077;52.956;6.796;2022-08-06T06:26:28;14.10;99.90
55203;DHT22;41077;52.956;6.796;2022-08-06T06:29:17;14.20;99.90
55203;DHT22;41077;52.956;6.796;2022-08-06T06:32:05;14.30;99.90
55203;DHT22;41077;52.956;6.796;2022-08-06T06:40:08;14.70;99.90
55203;DHT22;41077;52.956;6.796;2022-08-06T06:42:40;15.00;99.90
55203;DHT22;41077;52.956;6.796;2022-08-06T06:45:12;15.20;99.90
55203;DHT22;41077;52.956;6.796;2022-08-06T06:47:58;15.30;99.90
55203;DHT22;41077;52.956;6.796;2022-08-06T06:50:29;15.50;99.90
55203;DHT22;41077;52.956;6.796;2022-08-06T06:52:55;15.50;99.90
55203;DHT22;41077;52.956;6.796;2022-08-06T06:55:44;15.50;99.90
55203;DHT22;41077;52.956;6.796;2022-08-06T06:58:15;15.60;99.90
55203;DHT22;41077;52.956;6.796;2022-08-06T07:00:43;15.70;99.90
55203;DHT22;41077;52.956;6.796;2022-08-06T07:03:10;15.90;99.90
55203;DHT22;41077;52.956;6.796;2022-08-06T07:05:41;15.90;99.90
55203;DHT22;41077;52.956;6.796;2022-08-06T07:08:09;16.00;99.90
55203;DHT22;41077;52.956;6.796;2022-08-06T07:10:38;16.10;99.90
55203;DHT22;41077;52.956;6.796;2022-08-06T07:13:06;16.40;99.90
55203;DHT22;41077;52.956;6.796;2022-08-06T07:15:34;16.40;99.90
55203;DHT22;41077;52.956;6.796;2022-08-06T07:18:01;16.50;99.90
55203;DHT22;41077;52.956;6.796;2022-08-06T07:20:30;16.50;99.90
55203;DHT22;41077;52.956;6.796;2022-08-06T07:23:04;16.60;99.90
55203;DHT22;41077;52.956;6.796;2022-08-06T07:25:36;16.70;99.90
55203;DHT22;41077;52.956;6.796;2022-08-06T07:28:03;16.70;99.90
55203;DHT22;41077;52.956;6.796;2022-08-06T07:30:31;16.80;99.90
55203;DHT22;41077;52.956;6.796;2022-08-06T07:32:58;16.90;99.90
55203;DHT22;41077;52.956;6.796;2022-08-06T07:35:24;16.90;99.90
55203;DHT22;41077;52.956;6.796;2022-08-06T07:38:03;16.90;99.90
55203;DHT22;41077;52.956;6.796;2022-08-06T07:40:37;16.90;99.90
55203;DHT22;41077;52.956;6.796;2022-08-06T07:43:21;17.00;99.90
55203;DHT22;41077;52.956;6.796;2022-08-06T07:45:49;17.10;99.90
55203;DHT22;41077;52.956;6.796;2022-08-06T07:48:16;17.10;99.90
55203;DHT22;41077;52.956;6.796;2022-08-06T07:50:47;17.10;99.90
55203;DHT22;41077;52.956;6.796;2022-08-06T07:53:17;17.20;99.90
55203;DHT22;41077;52.956;6.796;2022-08-06T07:55:45;17.30;99.90
55203;DHT22;41077;52.956;6.796;2022-08-06T07:58:12;17.30;99.90
55203;DHT22;41077;52.956;6.796;2022-08-06T08:00:38;17.30;99.90
55203;DHT22;41077;52.956;6.796;2022-08-06T08:03:06;17.40;99.90
55203;DHT22;41077;52.956;6.796;2022-08-06T08:05:50;17.50;99.90
55203;DHT22;41077;52.956;6.796;2022-08-06T08:08:35;17.60;99.90
55203;DHT22;41077;52.956;6.796;2022-08-06T08:11:02;17.50;99.90
55203;DHT22;41077;52.956;6.796;2022-08-06T08:13:28;17.40;99.90
55203;DHT22;41077;52.956;6.796;2022-08-06T08:15:56;17.50;99.90
55203;DHT22;41077;52.956;6.796;2022-08-06T08:18:31;17.70;99.90
55203;DHT22;41077;52.956;6.796;2022-08-06T08:20:58;17.90;99.90
55203;DHT22;41077;52.956;6.796;2022-08-06T08:23:26;17.90;99.90
55203;DHT22;41077;52.956;6.796;2022-08-06T08:25:52;17.90;99.90
55203;DHT22;41077;52.956;6.796;2022-08-06T08:28:17;18.00;99.90
55203;DHT22;41077;52.956;6.796;2022-08-06T08:30:45;17.90;99.90
55203;DHT22;41077;52.956;6.796;2022-08-06T08:33:11;17.80;99.90
55203;DHT22;41077;52.956;6.796;2022-08-06T08:35:36;17.90;99.90
55203;DHT22;41077;52.956;6.796;2022-08-06T08:38:02;18.00;99.90
55203;DHT22;41077;52.956;6.796;2022-08-06T08:40:29;18.00;99.90
55203;DHT22;41077;52.956;6.796;2022-08-06T08:42:58;17.90;99.90
55203;DHT22;41077;52.956;6.796;2022-08-06T08:45:25;17.80;99.90
55203;DHT22;41077;52.956;6.796;2022-08-06T08:47:53;17.70;99.90
55203;DHT22;41077;52.956;6.796;2022-08-06T08:50:25;17.70;99.90
55203;DHT22;41077;52.956;6.796;2022-08-06T08:52:57;17.60;99.90
55203;DHT22;41077;52.956;6.796;2022-08-06T08:55:25;17.70;99.90
55203;DHT22;41077;52.956;6.796;2022-08-06T08:57:51;17.70;99.90
55203;DHT22;41077;52.956;6.796;2022-08-06T09:00:19;17.90;99.90
55203;DHT22;41077;52.956;6.796;2022-08-06T09:02:45;17.90;99.90
55203;DHT22;41077;52.956;6.796;2022-08-06T09:05:11;18.10;99.90
55203;DHT22;41077;52.956;6.796;2022-08-06T09:07:37;18.10;99.90
55203;DHT22;41077;52.956;6.796;2022-08-06T09:10:08;18.20;99.90
55203;DHT22;41077;52.956;6.796;2022-08-06T09:12:34;18.10;99.90
55203;DHT22;41077;52.956;6.796;2022-08-06T09:15:00;18.10;99.90
55203;DHT22;41077;52.956;6.796;2022-08-06T09:17:28;18.00;99.90
55203;DHT22;41077;52.956;6.796;2022-08-06T09:19:54;18.00;99.90
55203;DHT22;41077;52.956;6.796;2022-08-06T09:22:20;17.90;99.90
55203;DHT22;41077;52.956;6.796;2022-08-06T09:24:45;17.90;99.90
55203;DHT22;41077;52.956;6.796;2022-08-06T09:27:16;17.90;99.90
55203;DHT22;41077;52.956;6.796;2022-08-06T09:29:54;17.80;99.90
55203;DHT22;41077;52.956;6.796;2022-08-06T09:32:40;17.80;99.90
55203;DHT22;41077;52.956;6.796;2022-08-06T09:35:27;17.80;99.90
55203;DHT22;41077;52.956;6.796;2022-08-06T09:38:04;17.80;99.90
55203;DHT22;41077;52.956;6.796;2022-08-06T09:40:30;17.80;99.90
55203;DHT22;41077;52.956;6.796;2022-08-06T09:42:56;17.90;99.90
55203;DHT22;41077;52.956;6.796;2022-08-06T09:45:23;18.10;99.90
55203;DHT22;41077;52.956;6.796;2022-08-06T09:48:03;18.20;99.90
55203;DHT22;41077;52.956;6.796;2022-08-06T09:50:43;18.50;99.90
55203;DHT22;41077;52.956;6.796;2022-08-06T09:53:13;18.70;99.90
55203;DHT22;41077;52.956;6.796;2022-08-06T09:55:39;18.90;99.90
55203;DHT22;41077;52.956;6.796;2022-08-06T09:58:05;18.90;99.90
55203;DHT22;41077;52.956;6.796;2022-08-06T10:00:35;19.00;99.90
55203;DHT22;41077;52.956;6.796;2022-08-06T10:03:04;18.90;99.90
55203;DHT22;41077;52.956;6.796;2022-08-06T10:05:31;18.80;99.90
55203;DHT22;41077;52.956;6.796;2022-08-06T10:08:14;18.80;99.90
55203;DHT22;41077;52.956;6.796;2022-08-06T10:10:44;18.70;99.90
55203;DHT22;41077;52.956;6.796;2022-08-06T10:15:41;18.60;99.90
55203;DHT22;41077;52.956;6.796;2022-08-06T10:18:08;18.50;99.90
55203;DHT22;41077;52.956;6.796;2022-08-06T10:20:34;18.50;99.90
55203;DHT22;41077;52.956;6.796;2022-08-06T10:23:00;18.50;99.90
55203;DHT22;41077;52.956;6.796;2022-08-06T10:25:26;18.50;99.90
55203;DHT22;41077;52.956;6.796;2022-08-06T10:27:56;18.50;99.90
55203;DHT22;41077;52.956;6.796;2022-08-06T10:30:22;18.50;99.90
55203;DHT22;41077;52.956;6.796;2022-08-06T10:33:14;18.50;99.90
55203;DHT22;41077;52.956;6.796;2022-08-06T10:35:42;18.50;99.90
55203;DHT22;41077;52.956;6.796;2022-08-06T10:38:14;18.50;99.90
55203;DHT22;41077;52.956;6.796;2022-08-06T10:40:42;18.50;99.90
55203;DHT22;41077;52.956;6.796;2022-08-06T10:43:08;18.50;99.90
55203;DHT22;41077;52.956;6.796;2022-08-06T10:45:35;18.60;99.90
55203;DHT22;41077;52.956;6.796;2022-08-06T10:48:03;18.60;99.90
55203;DHT22;41077;52.956;6.796;2022-08-06T10:50:29;18.70;99.90
55203;DHT22;41077;52.956;6.796;2022-08-06T10:52:56;18.90;99.90
55203;DHT22;41077;52.956;6.796;2022-08-06T10:55:22;19.20;99.90
55203;DHT22;41077;52.956;6.796;2022-08-06T10:57:49;19.40;99.90
55203;DHT22;41077;52.956;6.796;2022-08-06T11:00:15;19.40;99.90
55203;DHT22;41077;52.956;6.796;2022-08-06T11:05:15;19.30;99.90
55203;DHT22;41077;52.956;6.796;2022-08-06T11:10:44;19.40;99.90
55203;DHT22;41077;52.956;6.796;2022-08-06T11:13:25;19.40;98.70
55203;DHT22;41077;52.956;6.796;2022-08-06T11:15:52;19.60;99.60
55203;DHT22;41077;52.956;6.796;2022-08-06T11:18:18;19.70;99.80
55203;DHT22;41077;52.956;6.796;2022-08-06T11:20:49;19.70;99.70
55203;DHT22;41077;52.956;6.796;2022-08-06T11:28:15;19.40;98.60
55203;DHT22;41077;52.956;6.796;2022-08-06T11:30:49;19.30;99.70
55203;DHT22;41077;52.956;6.796;2022-08-06T11:33:20;19.30;99.90
55203;DHT22;41077;52.956;6.796;2022-08-06T11:35:47;19.40;98.30
55203;DHT22;41077;52.956;6.796;2022-08-06T11:41:07;19.30;98.10
55203;DHT22;41077;52.956;6.796;2022-08-06T11:43:44;19.30;98.10
55203;DHT22;41077;52.956;6.796;2022-08-06T11:59:25;19.20;99.80
55203;DHT22;41077;52.956;6.796;2022-08-06T12:01:51;19.20;99.60
55203;DHT22;41077;52.956;6.796;2022-08-06T12:07:26;19.50;99.80
55203;DHT22;41077;52.956;6.796;2022-08-06T12:15:34;21.00;97.40
55203;DHT22;41077;52.956;6.796;2022-08-06T12:22:54;22.00;96.60
55203;DHT22;41077;52.956;6.796;2022-08-06T12:25:20;22.40;96.80
55203;DHT22;41077;52.956;6.796;2022-08-06T12:27:46;22.40;95.20
55203;DHT22;41077;52.956;6.796;2022-08-06T12:30:13;22.10;93.40
55203;DHT22;41077;52.956;6.796;2022-08-06T12:32:38;21.60;93.00
55203;DHT22;41077;52.956;6.796;2022-08-06T12:35:10;21.10;92.90
55203;DHT22;41077;52.956;6.796;2022-08-06T12:37:43;20.80;93.20
55203;DHT22;41077;52.956;6.796;2022-08-06T12:40:17;20.60;93.10
55203;DHT22;41077;52.956;6.796;2022-08-06T12:42:50;20.40;93.70
55203;DHT22;41077;52.956;6.796;2022-08-06T12:45:24;20.20;93.40
55203;DHT22;41077;52.956;6.796;2022-08-06T12:48:10;20.00;93.60
55203;DHT22;41077;52.956;6.796;2022-08-06T12:50:41;20.00;95.40
55203;DHT22;41077;52.956;6.796;2022-08-06T12:53:14;19.90;94.40
55203;DHT22;41077;52.956;6.796;2022-08-06T12:55:45;19.80;94.50
55203;DHT22;41077;52.956;6.796;2022-08-06T12:58:13;19.70;94.10
55203;DHT22;41077;52.956;6.796;2022-08-06T13:00:42;19.70;94.00
55203;DHT22;41077;52.956;6.796;2022-08-06T13:03:09;19.60;94.60
55203;DHT22;41077;52.956;6.796;2022-08-06T13:05:36;19.60;94.00
55203;DHT22;41077;52.956;6.796;2022-08-06T13:08:02;19.60;93.60
55203;DHT22;41077;52.956;6.796;2022-08-06T13:10:28;19.70;94.80
55203;DHT22;41077;52.956;6.796;2022-08-06T13:12:56;19.70;94.80
55203;DHT22;41077;52.956;6.796;2022-08-06T13:15:23;19.80;95.60
55203;DHT22;41077;52.956;6.796;2022-08-06T13:20:38;20.30;94.10
55203;DHT22;41077;52.956;6.796;2022-08-06T13:23:04;20.50;93.00
55203;DHT22;41077;52.956;6.796;2022-08-06T13:25:43;20.50;94.30
55203;DHT22;41077;52.956;6.796;2022-08-06T13:28:10;20.50;91.30
55203;DHT22;41077;52.956;6.796;2022-08-06T13:30:36;20.50;92.50
55203;DHT22;41077;52.956;6.796;2022-08-06T13:33:20;20.40;92.20
55203;DHT22;41077;52.956;6.796;2022-08-06T13:35:51;20.40;92.00
55203;DHT22;41077;52.956;6.796;2022-08-06T13:38:31;20.40;91.20
55203;DHT22;41077;52.956;6.796;2022-08-06T13:40:57;20.40;90.80
55203;DHT22;41077;52.956;6.796;2022-08-06T13:43:42;20.40;90.60
55203;DHT22;41077;52.956;6.796;2022-08-06T13:46:16;20.50;90.70
55203;DHT22;41077;52.956;6.796;2022-08-06T13:48:50;20.50;90.30
55203;DHT22;41077;52.956;6.796;2022-08-06T13:51:18;20.40;90.90
55203;DHT22;41077;52.956;6.796;2022-08-06T13:53:44;20.40;90.90
55203;DHT22;41077;52.956;6.796;2022-08-06T13:56:12;20.30;91.70
55203;DHT22;41077;52.956;6.796;2022-08-06T13:58:38;20.10;91.40
55203;DHT22;41077;52.956;6.796;2022-08-06T14:01:04;20.10;91.30
55203;DHT22;41077;52.956;6.796;2022-08-06T14:03:30;20.20;91.80
55203;DHT22;41077;52.956;6.796;2022-08-06T14:05:56;20.40;91.20
55203;DHT22;41077;52.956;6.796;2022-08-06T14:08:21;20.60;90.20
55203;DHT22;41077;52.956;6.796;2022-08-06T14:10:47;20.60;90.90
55203;DHT22;41077;52.956;6.796;2022-08-06T14:13:13;20.60;89.30
55203;DHT22;41077;52.956;6.796;2022-08-06T14:15:46;20.80;87.60
55203;DHT22;41077;52.956;6.796;2022-08-06T14:18:13;20.70;88.70
55203;DHT22;41077;52.956;6.796;2022-08-06T14:20:39;20.60;89.20
55203;DHT22;41077;52.956;6.796;2022-08-06T14:23:04;20.50;87.90
55203;DHT22;41077;52.956;6.796;2022-08-06T14:25:30;20.40;89.80
55203;DHT22;41077;52.956;6.796;2022-08-06T14:27:56;20.20;89.00
55203;DHT22;41077;52.956;6.796;2022-08-06T14:30:23;20.20;88.40
55203;DHT22;41077;52.956;6.796;2022-08-06T14:32:48;20.30;87.50
55203;DHT22;41077;52.956;6.796;2022-08-06T14:35:16;20.20;89.00
55203;DHT22;41077;52.956;6.796;2022-08-06T14:37:42;20.20;90.00
55203;DHT22;41077;52.956;6.796;2022-08-06T14:40:12;20.20;88.40
55203;DHT22;41077;52.956;6.796;2022-08-06T14:42:38;20.20;89.60
55203;DHT22;41077;52.956;6.796;2022-08-06T14:45:22;20.30;89.30
55203;DHT22;41077;52.956;6.796;2022-08-06T14:47:49;20.40;89.20
55203;DHT22;41077;52.956;6.796;2022-08-06T14:50:15;20.50;90.40
55203;DHT22;41077;52.956;6.796;2022-08-06T14:52:41;20.50;89.80
55203;DHT22;41077;52.956;6.796;2022-08-06T14:55:07;20.60;88.10
55203;DHT22;41077;52.956;6.796;2022-08-06T14:57:34;20.60;88.30
55203;DHT22;41077;52.956;6.796;2022-08-06T15:00:05;20.60;89.50
55203;DHT22;41077;52.956;6.796;2022-08-06T15:02:31;20.60;88.40
55203;DHT22;41077;52.956;6.796;2022-08-06T15:04:58;20.60;88.80
55203;DHT22;41077;52.956;6.796;2022-08-06T15:07:24;20.60;88.70
55203;DHT22;41077;52.956;6.796;2022-08-06T15:09:49;20.60;87.10
55203;DHT22;41077;52.956;6.796;2022-08-06T15:12:16;20.60;89.20
55203;DHT22;41077;52.956;6.796;2022-08-06T15:14:41;20.80;86.90
55203;DHT22;41077;52.956;6.796;2022-08-06T15:17:07;20.90;85.20
55203;DHT22;41077;52.956;6.796;2022-08-06T15:19:33;20.90;85.20
55203;DHT22;41077;52.956;6.796;2022-08-06T15:21:59;21.00;85.10
55203;DHT22;41077;52.956;6.796;2022-08-06T15:24:24;20.90;83.80
55203;DHT22;41077;52.956;6.796;2022-08-06T15:26:52;21.00;85.10
55203;DHT22;41077;52.956;6.796;2022-08-06T15:29:20;21.00;85.70
55203;DHT22;41077;52.956;6.796;2022-08-06T15:31:46;21.00;85.90
55203;DHT22;41077;52.956;6.796;2022-08-06T15:34:12;21.00;86.20
55203;DHT22;41077;52.956;6.796;2022-08-06T15:36:39;21.00;85.90
55203;DHT22;41077;52.956;6.796;2022-08-06T15:39:05;21.10;85.80
55203;DHT22;41077;52.956;6.796;2022-08-06T15:41:31;21.10;86.90
55203;DHT22;41077;52.956;6.796;2022-08-06T15:43:57;21.00;86.90
55203;DHT22;41077;52.956;6.796;2022-08-06T15:46:23;21.10;85.10
55203;DHT22;41077;52.956;6.796;2022-08-06T15:48:49;21.10;86.50
55203;DHT22;41077;52.956;6.796;2022-08-06T15:51:14;21.10;87.40
55203;DHT22;41077;52.956;6.796;2022-08-06T15:53:40;21.10;85.00
55203;DHT22;41077;52.956;6.796;2022-08-06T15:56:06;21.10;83.90
55203;DHT22;41077;52.956;6.796;2022-08-06T15:58:32;21.00;85.10
55203;DHT22;41077;52.956;6.796;2022-08-06T16:00:57;21.00;86.90
55203;DHT22;41077;52.956;6.796;2022-08-06T16:03:23;21.00;86.20
55203;DHT22;41077;52.956;6.796;2022-08-06T16:05:49;21.00;85.90
55203;DHT22;41077;52.956;6.796;2022-08-06T16:08:15;21.00;86.00
55203;DHT22;41077;52.956;6.796;2022-08-06T16:10:45;20.90;86.10
55203;DHT22;41077;52.956;6.796;2022-08-06T16:13:12;20.90;84.60
55203;DHT22;41077;52.956;6.796;2022-08-06T16:15:50;20.70;84.20
55203;DHT22;41077;52.956;6.796;2022-08-06T16:18:19;20.60;86.70
55203;DHT22;41077;52.956;6.796;2022-08-06T16:20:45;20.50;86.30
55203;DHT22;41077;52.956;6.796;2022-08-06T16:23:12;20.50;86.40
55203;DHT22;41077;52.956;6.796;2022-08-06T16:25:39;20.40;87.30
55203;DHT22;41077;52.956;6.796;2022-08-06T16:28:05;20.50;86.70
55203;DHT22;41077;52.956;6.796;2022-08-06T16:30:32;20.60;86.60
55203;DHT22;41077;52.956;6.796;2022-08-06T16:32:58;20.70;87.30
55203;DHT22;41077;52.956;6.796;2022-08-06T16:35:24;20.90;86.60
55203;DHT22;41077;52.956;6.796;2022-08-06T16:37:51;20.90;86.60
55203;DHT22;41077;52.956;6.796;2022-08-06T16:40:16;20.90;86.10
55203;DHT22;41077;52.956;6.796;2022-08-06T16:42:42;21.10;87.00
55203;DHT22;41077;52.956;6.796;2022-08-06T16:45:09;21.30;87.40
55203;DHT22;41077;52.956;6.796;2022-08-06T16:47:35;21.50;86.20
55203;DHT22;41077;52.956;6.796;2022-08-06T16:50:00;21.50;86.20
55203;DHT22;41077;52.956;6.796;2022-08-06T16:52:26;21.40;86.20